LTAS Airport Information

Runway Information
Airport Frequencies
Airport Navaids
Type NDB-DME Name Caycuma Frequency 292 KHZ
Airport Weather Information & NOTAM
ADDS - METARS form results

(2230 UTC 19 September 2020)
Data provider http://aviationweather.gov/metar/data/
 
Forecast for: LTAS (ZONGULDAK , TR)
Text: TAF LTAS 191340Z 1915/1924 VRB02KT 9999 SCT030
Forecast period: 1500 UTC 19 September 2020 to 0000 UTC 20 September 2020
Forecast type: FROM: standard forecast or significant change
Winds: variable direction winds at 2 MPH (2 knots; 1.0 m/s)
Visibility: 6 or more miles (10+ km)
Ceiling: at least 12,000 feet AGL
Clouds: scattered clouds at 3000 feet AGL
Weather: no significant weather forecast for this period